Blue Springs, Arkansas
Current Conditions -  °F | °C
As of 1:53 AM on Friday 19 Dec 2014 (Local Time) from KHOT Reporting Station
Overcast Overcast  
Wind Chill: 36°   Ceiling: 300
Heat Index: 40°   Visibility: 7mi
Dew Point: 38°   Wind: 6mph
Humidity: 93%   Direction: 90°E
Pressure: 30.19"   Gusts: NA
Location:  34.5331°N, 93.0035°W
Report Text: KHOT 190753Z AUTO 09005KT 7SM OVC003 04/03 A3019 RMK AO2 SLP225 T00440033
Loading
Personal Weather Stations






























Interactive Weather Map New forecast layout! Learn more

10-Day Weather Forecast

Advertisements
Track Severe Weather on mobile